sensor_id;sensor_type;location;lat;lon;timestamp;P1;durP1;ratioP1;P2;durP2;ratioP2
27269;SDS011;14769;56.934;24.176;2023-03-11T00:01:01;3.95;;;2.00;;
27269;SDS011;14769;56.934;24.176;2023-03-11T00:02:02;3.92;;;2.13;;
27269;SDS011;14769;56.934;24.176;2023-03-11T00:03:05;4.25;;;2.42;;
27269;SDS011;14769;56.934;24.176;2023-03-11T00:04:08;4.65;;;2.17;;
27269;SDS011;14769;56.934;24.176;2023-03-11T00:05:17;2.22;;;1.85;;
27269;SDS011;14769;56.934;24.176;2023-03-11T00:06:20;3.85;;;2.10;;
27269;SDS011;14769;56.934;24.176;2023-03-11T00:07:22;3.15;;;1.85;;
27269;SDS011;14769;56.934;24.176;2023-03-11T00:08:26;4.45;;;1.83;;
27269;SDS011;14769;56.934;24.176;2023-03-11T00:09:28;5.50;;;2.33;;
27269;SDS011;14769;56.934;24.176;2023-03-11T00:10:31;3.35;;;2.00;;
27269;SDS011;14769;56.934;24.176;2023-03-11T00:11:35;3.78;;;2.03;;
27269;SDS011;14769;56.934;24.176;2023-03-11T00:12:37;3.38;;;2.05;;
27269;SDS011;14769;56.934;24.176;2023-03-11T00:13:39;8.07;;;3.83;;
27269;SDS011;14769;56.934;24.176;2023-03-11T00:14:41;2.30;;;1.80;;
27269;SDS011;14769;56.934;24.176;2023-03-11T00:15:44;4.30;;;2.38;;
27269;SDS011;14769;56.934;24.176;2023-03-11T00:16:48;2.47;;;1.95;;
27269;SDS011;14769;56.934;24.176;2023-03-11T00:17:50;1.77;;;1.50;;
27269;SDS011;14769;56.934;24.176;2023-03-11T00:18:52;3.65;;;2.08;;
27269;SDS011;14769;56.934;24.176;2023-03-11T00:19:54;2.05;;;1.60;;
27269;SDS011;14769;56.934;24.176;2023-03-11T00:20:57;4.57;;;2.38;;
27269;SDS011;14769;56.934;24.176;2023-03-11T00:22:00;4.03;;;2.40;;
27269;SDS011;14769;56.934;24.176;2023-03-11T00:23:04;3.33;;;2.13;;
27269;SDS011;14769;56.934;24.176;2023-03-11T00:24:07;2.28;;;2.08;;
27269;SDS011;14769;56.934;24.176;2023-03-11T00:25:10;3.25;;;2.00;;
27269;SDS011;14769;56.934;24.176;2023-03-11T00:26:12;3.03;;;2.00;;
27269;SDS011;14769;56.934;24.176;2023-03-11T00:27:14;3.72;;;1.90;;
27269;SDS011;14769;56.934;24.176;2023-03-11T00:28:16;5.32;;;2.85;;
27269;SDS011;14769;56.934;24.176;2023-03-11T00:29:18;4.18;;;2.70;;
27269;SDS011;14769;56.934;24.176;2023-03-11T00:30:21;6.35;;;3.20;;
27269;SDS011;14769;56.934;24.176;2023-03-11T00:31:24;3.83;;;2.75;;
27269;SDS011;14769;56.934;24.176;2023-03-11T00:32:26;3.50;;;2.28;;
27269;SDS011;14769;56.934;24.176;2023-03-11T00:33:28;4.05;;;2.45;;
27269;SDS011;14769;56.934;24.176;2023-03-11T00:34:31;5.38;;;3.13;;
27269;SDS011;14769;56.934;24.176;2023-03-11T00:35:33;3.83;;;2.35;;
27269;SDS011;14769;56.934;24.176;2023-03-11T00:36:36;3.60;;;2.65;;
27269;SDS011;14769;56.934;24.176;2023-03-11T00:37:38;5.18;;;2.28;;
27269;SDS011;14769;56.934;24.176;2023-03-11T00:38:40;2.22;;;1.85;;
27269;SDS011;14769;56.934;24.176;2023-03-11T00:39:41;3.22;;;1.80;;
27269;SDS011;14769;56.934;24.176;2023-03-11T00:40:44;2.50;;;1.98;;
27269;SDS011;14769;56.934;24.176;2023-03-11T00:41:47;2.92;;;1.73;;
27269;SDS011;14769;56.934;24.176;2023-03-11T00:42:49;2.85;;;2.40;;
27269;SDS011;14769;56.934;24.176;2023-03-11T00:43:51;6.70;;;2.42;;
27269;SDS011;14769;56.934;24.176;2023-03-11T00:44:52;6.50;;;3.38;;
27269;SDS011;14769;56.934;24.176;2023-03-11T00:45:54;6.72;;;2.92;;
27269;SDS011;14769;56.934;24.176;2023-03-11T00:46:56;6.07;;;2.60;;
27269;SDS011;14769;56.934;24.176;2023-03-11T00:47:58;5.40;;;3.20;;
27269;SDS011;14769;56.934;24.176;2023-03-11T00:49:00;4.80;;;2.30;;
27269;SDS011;14769;56.934;24.176;2023-03-11T00:50:03;5.68;;;2.72;;
27269;SDS011;14769;56.934;24.176;2023-03-11T00:51:06;4.15;;;2.03;;
27269;SDS011;14769;56.934;24.176;2023-03-11T00:52:08;3.80;;;2.33;;
27269;SDS011;14769;56.934;24.176;2023-03-11T00:53:10;2.90;;;1.90;;
27269;SDS011;14769;56.934;24.176;2023-03-11T00:54:12;2.95;;;2.08;;
27269;SDS011;14769;56.934;24.176;2023-03-11T00:55:16;2.97;;;2.10;;
27269;SDS011;14769;56.934;24.176;2023-03-11T00:56:21;2.78;;;2.13;;
27269;SDS011;14769;56.934;24.176;2023-03-11T00:57:23;3.75;;;1.95;;
27269;SDS011;14769;56.934;24.176;2023-03-11T00:58:25;7.50;;;3.67;;
27269;SDS011;14769;56.934;24.176;2023-03-11T00:59:29;4.32;;;2.40;;
27269;SDS011;14769;56.934;24.176;2023-03-11T01:00:31;3.95;;;2.22;;
27269;SDS011;14769;56.934;24.176;2023-03-11T01:01:33;3.40;;;2.25;;
27269;SDS011;14769;56.934;24.176;2023-03-11T01:02:35;4.13;;;2.65;;
27269;SDS011;14769;56.934;24.176;2023-03-11T01:03:38;3.35;;;2.38;;
27269;SDS011;14769;56.934;24.176;2023-03-11T01:04:40;3.00;;;2.20;;
27269;SDS011;14769;56.934;24.176;2023-03-11T01:05:42;6.47;;;2.40;;
27269;SDS011;14769;56.934;24.176;2023-03-11T01:06:44;3.58;;;2.13;;
27269;SDS011;14769;56.934;24.176;2023-03-11T01:07:46;3.92;;;1.70;;
27269;SDS011;14769;56.934;24.176;2023-03-11T01:08:49;2.90;;;1.92;;
27269;SDS011;14769;56.934;24.176;2023-03-11T01:09:50;6.30;;;3.13;;
27269;SDS011;14769;56.934;24.176;2023-03-11T01:10:52;6.72;;;2.90;;
27269;SDS011;14769;56.934;24.176;2023-03-11T01:11:55;5.38;;;2.83;;
27269;SDS011;14769;56.934;24.176;2023-03-11T01:12:57;5.03;;;2.17;;
27269;SDS011;14769;56.934;24.176;2023-03-11T01:13:59;8.45;;;4.22;;
27269;SDS011;14769;56.934;24.176;2023-03-11T01:15:02;4.68;;;2.88;;
27269;SDS011;14769;56.934;24.176;2023-03-11T01:16:04;2.70;;;2.00;;
27269;SDS011;14769;56.934;24.176;2023-03-11T01:17:08;4.95;;;2.88;;
27269;SDS011;14769;56.934;24.176;2023-03-11T01:18:10;5.25;;;2.75;;
27269;SDS011;14769;56.934;24.176;2023-03-11T01:19:12;6.70;;;3.75;;
27269;SDS011;14769;56.934;24.176;2023-03-11T01:20:14;8.43;;;3.65;;
27269;SDS011;14769;56.934;24.176;2023-03-11T01:21:16;9.20;;;4.50;;
27269;SDS011;14769;56.934;24.176;2023-03-11T01:22:18;7.03;;;3.33;;
27269;SDS011;14769;56.934;24.176;2023-03-11T01:23:20;6.85;;;3.40;;
27269;SDS011;14769;56.934;24.176;2023-03-11T01:24:23;4.70;;;3.08;;
27269;SDS011;14769;56.934;24.176;2023-03-11T01:25:24;3.92;;;2.30;;
27269;SDS011;14769;56.934;24.176;2023-03-11T01:26:26;4.07;;;2.40;;
27269;SDS011;14769;56.934;24.176;2023-03-11T01:27:28;3.90;;;2.10;;
27269;SDS011;14769;56.934;24.176;2023-03-11T01:28:31;5.22;;;2.50;;
27269;SDS011;14769;56.934;24.176;2023-03-11T01:29:33;3.58;;;2.47;;
27269;SDS011;14769;56.934;24.176;2023-03-11T01:30:36;5.35;;;2.83;;
27269;SDS011;14769;56.934;24.176;2023-03-11T01:31:40;5.03;;;2.83;;
27269;SDS011;14769;56.934;24.176;2023-03-11T01:32:42;3.78;;;2.60;;
27269;SDS011;14769;56.934;24.176;2023-03-11T01:33:44;4.22;;;2.55;;
27269;SDS011;14769;56.934;24.176;2023-03-11T01:34:46;3.78;;;2.33;;
27269;SDS011;14769;56.934;24.176;2023-03-11T01:35:48;3.38;;;2.55;;
27269;SDS011;14769;56.934;24.176;2023-03-11T01:36:50;4.72;;;2.17;;
27269;SDS011;14769;56.934;24.176;2023-03-11T01:37:52;3.70;;;2.22;;
27269;SDS011;14769;56.934;24.176;2023-03-11T01:38:54;4.03;;;2.58;;
27269;SDS011;14769;56.934;24.176;2023-03-11T01:39:56;3.65;;;2.55;;
27269;SDS011;14769;56.934;24.176;2023-03-11T01:40:58;3.88;;;2.80;;
27269;SDS011;14769;56.934;24.176;2023-03-11T01:42:00;4.25;;;2.72;;
27269;SDS011;14769;56.934;24.176;2023-03-11T01:43:02;5.40;;;2.50;;
27269;SDS011;14769;56.934;24.176;2023-03-11T01:44:06;6.45;;;3.30;;
27269;SDS011;14769;56.934;24.176;2023-03-11T01:47:55;3.88;;;2.50;;
27269;SDS011;14769;56.934;24.176;2023-03-11T01:48:58;7.53;;;3.45;;
27269;SDS011;14769;56.934;24.176;2023-03-11T01:50:03;6.95;;;2.97;;
27269;SDS011;14769;56.934;24.176;2023-03-11T01:51:07;4.97;;;2.55;;
27269;SDS011;14769;56.934;24.176;2023-03-11T01:52:10;5.05;;;2.25;;
27269;SDS011;14769;56.934;24.176;2023-03-11T01:53:12;4.13;;;3.25;;
27269;SDS011;14769;56.934;24.176;2023-03-11T01:55:23;4.68;;;2.60;;
27269;SDS011;14769;56.934;24.176;2023-03-11T01:56:25;5.22;;;3.45;;
27269;SDS011;14769;56.934;24.176;2023-03-11T01:57:28;3.15;;;2.20;;
27269;SDS011;14769;56.934;24.176;2023-03-11T01:58:31;2.42;;;2.15;;
27269;SDS011;14769;56.934;24.176;2023-03-11T01:59:44;2.53;;;2.17;;
27269;SDS011;14769;56.934;24.176;2023-03-11T02:00:50;2.33;;;1.83;;
27269;SDS011;14769;56.934;24.176;2023-03-11T02:02:04;2.80;;;2.20;;
27269;SDS011;14769;56.934;24.176;2023-03-11T02:03:08;5.18;;;2.90;;
27269;SDS011;14769;56.934;24.176;2023-03-11T02:04:18;2.50;;;2.05;;
27269;SDS011;14769;56.934;24.176;2023-03-11T02:05:22;3.40;;;2.10;;
27269;SDS011;14769;56.934;24.176;2023-03-11T02:06:25;4.10;;;2.40;;
27269;SDS011;14769;56.934;24.176;2023-03-11T02:07:27;2.90;;;2.60;;
27269;SDS011;14769;56.934;24.176;2023-03-11T02:08:29;4.75;;;2.78;;
27269;SDS011;14769;56.934;24.176;2023-03-11T02:09:34;2.97;;;2.47;;
27269;SDS011;14769;56.934;24.176;2023-03-11T02:10:36;2.50;;;2.20;;
27269;SDS011;14769;56.934;24.176;2023-03-11T02:11:41;4.40;;;2.88;;
27269;SDS011;14769;56.934;24.176;2023-03-11T02:12:43;4.22;;;2.80;;
27269;SDS011;14769;56.934;24.176;2023-03-11T02:13:46;5.25;;;3.28;;
27269;SDS011;14769;56.934;24.176;2023-03-11T02:14:50;5.13;;;2.80;;
27269;SDS011;14769;56.934;24.176;2023-03-11T02:15:54;6.43;;;3.05;;
27269;SDS011;14769;56.934;24.176;2023-03-11T02:16:56;4.75;;;2.67;;
27269;SDS011;14769;56.934;24.176;2023-03-11T02:18:00;6.72;;;2.90;;
27269;SDS011;14769;56.934;24.176;2023-03-11T02:19:11;4.25;;;2.35;;
27269;SDS011;14769;56.934;24.176;2023-03-11T02:20:29;4.03;;;2.40;;
27269;SDS011;14769;56.934;24.176;2023-03-11T02:21:33;6.00;;;2.42;;
27269;SDS011;14769;56.934;24.176;2023-03-11T02:22:35;3.60;;;2.50;;
27269;SDS011;14769;56.934;24.176;2023-03-11T02:23:49;4.97;;;2.80;;
27269;SDS011;14769;56.934;24.176;2023-03-11T02:24:56;5.63;;;3.20;;
27269;SDS011;14769;56.934;24.176;2023-03-11T02:26:28;4.05;;;2.22;;
27269;SDS011;14769;56.934;24.176;2023-03-11T02:27:57;5.55;;;2.95;;
27269;SDS011;14769;56.934;24.176;2023-03-11T02:29:01;5.70;;;2.40;;
27269;SDS011;14769;56.934;24.176;2023-03-11T02:30:06;7.35;;;3.17;;
27269;SDS011;14769;56.934;24.176;2023-03-11T02:31:11;6.07;;;3.00;;
27269;SDS011;14769;56.934;24.176;2023-03-11T02:32:29;5.05;;;3.00;;
27269;SDS011;14769;56.934;24.176;2023-03-11T02:33:42;5.50;;;2.53;;
27269;SDS011;14769;56.934;24.176;2023-03-11T02:34:46;6.05;;;2.92;;
27269;SDS011;14769;56.934;24.176;2023-03-11T02:35:48;6.43;;;3.55;;
27269;SDS011;14769;56.934;24.176;2023-03-11T02:36:50;6.43;;;3.42;;
27269;SDS011;14769;56.934;24.176;2023-03-11T02:37:53;6.72;;;3.47;;
27269;SDS011;14769;56.934;24.176;2023-03-11T02:38:55;5.60;;;2.85;;
27269;SDS011;14769;56.934;24.176;2023-03-11T02:41:24;4.43;;;2.33;;
27269;SDS011;14769;56.934;24.176;2023-03-11T02:42:27;7.88;;;2.90;;
27269;SDS011;14769;56.934;24.176;2023-03-11T02:43:42;3.92;;;2.40;;
27269;SDS011;14769;56.934;24.176;2023-03-11T02:44:47;4.53;;;2.45;;
27269;SDS011;14769;56.934;24.176;2023-03-11T02:46:12;4.60;;;2.38;;
27269;SDS011;14769;56.934;24.176;2023-03-11T02:47:15;5.13;;;2.80;;
27269;SDS011;14769;56.934;24.176;2023-03-11T02:48:17;2.28;;;1.90;;
27269;SDS011;14769;56.934;24.176;2023-03-11T02:49:20;3.67;;;2.42;;
27269;SDS011;14769;56.934;24.176;2023-03-11T02:50:23;3.63;;;2.13;;
27269;SDS011;14769;56.934;24.176;2023-03-11T02:51:28;3.25;;;2.13;;
27269;SDS011;14769;56.934;24.176;2023-03-11T02:52:31;4.80;;;2.40;;
27269;SDS011;14769;56.934;24.176;2023-03-11T02:53:37;3.90;;;2.38;;
27269;SDS011;14769;56.934;24.176;2023-03-11T02:54:45;4.95;;;2.38;;
27269;SDS011;14769;56.934;24.176;2023-03-11T02:55:47;3.40;;;2.28;;
27269;SDS011;14769;56.934;24.176;2023-03-11T02:56:48;3.15;;;2.15;;
27269;SDS011;14769;56.934;24.176;2023-03-11T02:57:50;2.60;;;2.13;;
27269;SDS011;14769;56.934;24.176;2023-03-11T02:58:52;3.80;;;2.47;;
27269;SDS011;14769;56.934;24.176;2023-03-11T02:59:54;4.28;;;2.70;;
27269;SDS011;14769;56.934;24.176;2023-03-11T03:00:56;3.58;;;2.42;;
27269;SDS011;14769;56.934;24.176;2023-03-11T03:01:58;4.05;;;2.60;;
27269;SDS011;14769;56.934;24.176;2023-03-11T03:03:00;4.03;;;2.55;;
27269;SDS011;14769;56.934;24.176;2023-03-11T03:04:02;3.03;;;2.38;;
27269;SDS011;14769;56.934;24.176;2023-03-11T03:05:04;5.07;;;2.42;;
27269;SDS011;14769;56.934;24.176;2023-03-11T03:06:07;2.85;;;2.20;;
27269;SDS011;14769;56.934;24.176;2023-03-11T03:07:09;3.47;;;2.20;;
27269;SDS011;14769;56.934;24.176;2023-03-11T03:08:11;3.30;;;2.40;;
27269;SDS011;14769;56.934;24.176;2023-03-11T03:09:13;5.10;;;3.03;;
27269;SDS011;14769;56.934;24.176;2023-03-11T03:10:15;6.63;;;3.80;;
27269;SDS011;14769;56.934;24.176;2023-03-11T03:11:18;3.58;;;2.22;;
27269;SDS011;14769;56.934;24.176;2023-03-11T03:12:20;5.97;;;3.05;;
27269;SDS011;14769;56.934;24.176;2023-03-11T03:13:22;3.92;;;2.55;;
27269;SDS011;14769;56.934;24.176;2023-03-11T03:14:24;4.28;;;2.30;;
27269;SDS011;14769;56.934;24.176;2023-03-11T03:15:26;3.20;;;2.22;;
27269;SDS011;14769;56.934;24.176;2023-03-11T03:16:28;4.03;;;2.60;;
27269;SDS011;14769;56.934;24.176;2023-03-11T03:17:30;3.22;;;2.40;;
27269;SDS011;14769;56.934;24.176;2023-03-11T03:18:32;2.58;;;2.10;;
27269;SDS011;14769;56.934;24.176;2023-03-11T03:19:34;2.53;;;2.03;;
27269;SDS011;14769;56.934;24.176;2023-03-11T03:20:36;3.05;;;2.30;;
27269;SDS011;14769;56.934;24.176;2023-03-11T03:21:38;6.88;;;2.20;;
27269;SDS011;14769;56.934;24.176;2023-03-11T03:22:41;2.55;;;1.92;;
27269;SDS011;14769;56.934;24.176;2023-03-11T03:23:43;2.25;;;1.75;;
27269;SDS011;14769;56.934;24.176;2023-03-11T03:24:45;2.88;;;1.90;;
27269;SDS011;14769;56.934;24.176;2023-03-11T03:25:47;2.40;;;2.17;;
27269;SDS011;14769;56.934;24.176;2023-03-11T03:26:49;4.35;;;3.08;;
27269;SDS011;14769;56.934;24.176;2023-03-11T03:27:52;3.33;;;2.00;;
27269;SDS011;14769;56.934;24.176;2023-03-11T03:28:54;4.72;;;2.42;;
27269;SDS011;14769;56.934;24.176;2023-03-11T03:29:56;4.38;;;2.17;;
27269;SDS011;14769;56.934;24.176;2023-03-11T03:31:04;2.60;;;2.08;;
27269;SDS011;14769;56.934;24.176;2023-03-11T03:32:07;2.78;;;2.03;;
27269;SDS011;14769;56.934;24.176;2023-03-11T03:33:09;4.07;;;2.50;;
27269;SDS011;14769;56.934;24.176;2023-03-11T03:34:11;3.40;;;2.10;;
27269;SDS011;14769;56.934;24.176;2023-03-11T03:35:13;3.38;;;2.17;;
27269;SDS011;14769;56.934;24.176;2023-03-11T03:36:15;4.47;;;2.35;;
27269;SDS011;14769;56.934;24.176;2023-03-11T03:37:17;4.93;;;2.45;;
27269;SDS011;14769;56.934;24.176;2023-03-11T03:38:19;2.58;;;1.98;;
27269;SDS011;14769;56.934;24.176;2023-03-11T03:39:21;2.25;;;1.75;;
27269;SDS011;14769;56.934;24.176;2023-03-11T03:40:23;3.38;;;2.40;;
27269;SDS011;14769;56.934;24.176;2023-03-11T03:41:25;3.15;;;2.28;;
27269;SDS011;14769;56.934;24.176;2023-03-11T03:42:27;3.60;;;2.40;;
27269;SDS011;14769;56.934;24.176;2023-03-11T03:43:29;3.58;;;2.30;;
27269;SDS011;14769;56.934;24.176;2023-03-11T03:44:31;2.67;;;2.47;;
27269;SDS011;14769;56.934;24.176;2023-03-11T03:45:34;3.92;;;2.70;;
27269;SDS011;14769;56.934;24.176;2023-03-11T03:46:36;3.45;;;2.63;;
27269;SDS011;14769;56.934;24.176;2023-03-11T03:47:38;4.07;;;3.15;;
27269;SDS011;14769;56.934;24.176;2023-03-11T03:48:41;3.42;;;2.65;;
27269;SDS011;14769;56.934;24.176;2023-03-11T03:49:42;2.80;;;2.30;;
27269;SDS011;14769;56.934;24.176;2023-03-11T03:50:45;2.45;;;1.63;;
27269;SDS011;14769;56.934;24.176;2023-03-11T03:51:49;2.60;;;1.90;;
27269;SDS011;14769;56.934;24.176;2023-03-11T03:52:51;2.90;;;2.00;;
27269;SDS011;14769;56.934;24.176;2023-03-11T03:53:53;3.42;;;2.58;;
27269;SDS011;14769;56.934;24.176;2023-03-11T03:54:55;3.40;;;1.90;;
27269;SDS011;14769;56.934;24.176;2023-03-11T03:55:57;2.75;;;1.98;;
27269;SDS011;14769;56.934;24.176;2023-03-11T03:57:09;2.95;;;2.40;;
27269;SDS011;14769;56.934;24.176;2023-03-11T03:58:11;3.42;;;2.58;;
27269;SDS011;14769;56.934;24.176;2023-03-11T03:59:13;3.47;;;2.28;;
27269;SDS011;14769;56.934;24.176;2023-03-11T04:00:15;5.25;;;3.78;;
27269;SDS011;14769;56.934;24.176;2023-03-11T04:01:17;4.53;;;3.70;;
27269;SDS011;14769;56.934;24.176;2023-03-11T04:02:19;3.33;;;2.70;;
27269;SDS011;14769;56.934;24.176;2023-03-11T04:03:21;4.50;;;3.10;;
27269;SDS011;14769;56.934;24.176;2023-03-11T04:04:24;5.78;;;2.85;;
27269;SDS011;14769;56.934;24.176;2023-03-11T04:05:26;3.53;;;2.60;;
27269;SDS011;14769;56.934;24.176;2023-03-11T04:06:29;3.42;;;2.75;;
27269;SDS011;14769;56.934;24.176;2023-03-11T04:07:32;4.47;;;2.67;;
27269;SDS011;14769;56.934;24.176;2023-03-11T04:08:36;4.63;;;2.60;;
27269;SDS011;14769;56.934;24.176;2023-03-11T04:09:39;4.97;;;3.00;;
27269;SDS011;14769;56.934;24.176;2023-03-11T04:10:42;6.13;;;2.72;;
27269;SDS011;14769;56.934;24.176;2023-03-11T04:11:44;6.20;;;2.45;;
27269;SDS011;14769;56.934;24.176;2023-03-11T04:12:46;4.47;;;2.90;;
27269;SDS011;14769;56.934;24.176;2023-03-11T04:13:48;3.67;;;2.40;;
27269;SDS011;14769;56.934;24.176;2023-03-11T04:14:50;4.78;;;2.55;;
27269;SDS011;14769;56.934;24.176;2023-03-11T04:15:52;5.38;;;2.40;;
27269;SDS011;14769;56.934;24.176;2023-03-11T04:16:54;3.42;;;2.40;;
27269;SDS011;14769;56.934;24.176;2023-03-11T04:17:56;6.38;;;3.50;;
27269;SDS011;14769;56.934;24.176;2023-03-11T04:18:58;5.88;;;3.28;;
27269;SDS011;14769;56.934;24.176;2023-03-11T04:20:02;5.25;;;3.30;;
27269;SDS011;14769;56.934;24.176;2023-03-11T04:21:07;2.83;;;2.53;;
27269;SDS011;14769;56.934;24.176;2023-03-11T04:22:09;5.35;;;3.03;;
27269;SDS011;14769;56.934;24.176;2023-03-11T04:23:11;4.78;;;2.53;;
27269;SDS011;14769;56.934;24.176;2023-03-11T04:24:13;3.92;;;2.67;;
27269;SDS011;14769;56.934;24.176;2023-03-11T04:25:15;3.05;;;2.75;;
27269;SDS011;14769;56.934;24.176;2023-03-11T04:26:17;3.40;;;2.60;;
27269;SDS011;14769;56.934;24.176;2023-03-11T04:27:19;4.53;;;2.67;;
27269;SDS011;14769;56.934;24.176;2023-03-11T04:28:20;3.50;;;2.47;;
27269;SDS011;14769;56.934;24.176;2023-03-11T04:29:22;4.95;;;2.50;;
27269;SDS011;14769;56.934;24.176;2023-03-11T04:30:24;4.05;;;2.70;;
27269;SDS011;14769;56.934;24.176;2023-03-11T04:31:26;5.05;;;2.53;;
27269;SDS011;14769;56.934;24.176;2023-03-11T04:32:28;5.25;;;3.03;;
27269;SDS011;14769;56.934;24.176;2023-03-11T04:33:30;3.35;;;2.92;;
27269;SDS011;14769;56.934;24.176;2023-03-11T04:34:33;4.28;;;3.10;;
27269;SDS011;14769;56.934;24.176;2023-03-11T04:35:36;4.47;;;3.25;;
27269;SDS011;14769;56.934;24.176;2023-03-11T04:36:39;2.85;;;2.50;;
27269;SDS011;14769;56.934;24.176;2023-03-11T04:37:41;3.20;;;2.58;;
27269;SDS011;14769;56.934;24.176;2023-03-11T04:38:45;4.07;;;3.05;;
27269;SDS011;14769;56.934;24.176;2023-03-11T04:39:49;4.57;;;3.22;;
27269;SDS011;14769;56.934;24.176;2023-03-11T04:40:51;4.63;;;3.42;;
27269;SDS011;14769;56.934;24.176;2023-03-11T04:41:53;5.72;;;3.50;;
27269;SDS011;14769;56.934;24.176;2023-03-11T04:42:55;5.13;;;3.30;;
27269;SDS011;14769;56.934;24.176;2023-03-11T04:44:01;5.57;;;3.53;;
27269;SDS011;14769;56.934;24.176;2023-03-11T04:45:03;5.32;;;3.55;;
27269;SDS011;14769;56.934;24.176;2023-03-11T04:46:06;6.15;;;3.35;;
27269;SDS011;14769;56.934;24.176;2023-03-11T04:47:09;5.82;;;3.53;;
27269;SDS011;14769;56.934;24.176;2023-03-11T04:48:11;3.28;;;2.60;;
27269;SDS011;14769;56.934;24.176;2023-03-11T04:49:12;3.95;;;2.63;;
27269;SDS011;14769;56.934;24.176;2023-03-11T04:50:15;3.70;;;2.88;;
27269;SDS011;14769;56.934;24.176;2023-03-11T04:51:18;4.72;;;2.85;;
27269;SDS011;14769;56.934;24.176;2023-03-11T04:52:20;6.65;;;2.65;;
27269;SDS011;14769;56.934;24.176;2023-03-11T04:53:22;3.00;;;2.40;;
27269;SDS011;14769;56.934;24.176;2023-03-11T04:54:24;3.80;;;2.42;;
27269;SDS011;14769;56.934;24.176;2023-03-11T04:55:26;4.22;;;2.80;;
27269;SDS011;14769;56.934;24.176;2023-03-11T04:56:28;3.20;;;2.28;;
27269;SDS011;14769;56.934;24.176;2023-03-11T04:57:30;2.60;;;2.25;;
27269;SDS011;14769;56.934;24.176;2023-03-11T04:58:32;3.08;;;2.53;;
27269;SDS011;14769;56.934;24.176;2023-03-11T04:59:34;4.78;;;2.67;;
27269;SDS011;14769;56.934;24.176;2023-03-11T05:00:36;3.85;;;2.90;;
27269;SDS011;14769;56.934;24.176;2023-03-11T05:01:38;2.97;;;2.45;;
27269;SDS011;14769;56.934;24.176;2023-03-11T05:02:40;6.05;;;2.72;;
27269;SDS011;14769;56.934;24.176;2023-03-11T05:03:42;5.25;;;2.58;;
27269;SDS011;14769;56.934;24.176;2023-03-11T05:04:45;3.15;;;2.40;;
27269;SDS011;14769;56.934;24.176;2023-03-11T05:05:47;4.70;;;2.40;;
27269;SDS011;14769;56.934;24.176;2023-03-11T05:06:49;5.07;;;2.88;;
27269;SDS011;14769;56.934;24.176;2023-03-11T05:07:51;3.47;;;2.72;;
27269;SDS011;14769;56.934;24.176;2023-03-11T05:08:53;4.28;;;3.00;;
27269;SDS011;14769;56.934;24.176;2023-03-11T05:09:55;7.85;;;4.47;;
27269;SDS011;14769;56.934;24.176;2023-03-11T05:10:57;7.65;;;4.15;;
27269;SDS011;14769;56.934;24.176;2023-03-11T05:11:59;5.78;;;4.07;;
27269;SDS011;14769;56.934;24.176;2023-03-11T05:13:01;8.38;;;4.03;;
27269;SDS011;14769;56.934;24.176;2023-03-11T05:14:03;8.90;;;4.68;;
27269;SDS011;14769;56.934;24.176;2023-03-11T05:15:06;11.18;;;5.60;;
27269;SDS011;14769;56.934;24.176;2023-03-11T05:16:08;4.25;;;3.05;;
27269;SDS011;14769;56.934;24.176;2023-03-11T05:17:10;5.20;;;3.42;;
27269;SDS011;14769;56.934;24.176;2023-03-11T05:18:14;5.70;;;3.17;;
27269;SDS011;14769;56.934;24.176;2023-03-11T05:19:18;2.80;;;2.50;;
27269;SDS011;14769;56.934;24.176;2023-03-11T05:20:31;3.97;;;2.72;;
27269;SDS011;14769;56.934;24.176;2023-03-11T05:21:33;3.55;;;2.65;;
27269;SDS011;14769;56.934;24.176;2023-03-11T05:22:35;3.63;;;3.05;;
27269;SDS011;14769;56.934;24.176;2023-03-11T05:23:37;4.13;;;2.58;;
27269;SDS011;14769;56.934;24.176;2023-03-11T05:24:39;3.75;;;3.00;;
27269;SDS011;14769;56.934;24.176;2023-03-11T05:25:41;2.97;;;2.63;;
27269;SDS011;14769;56.934;24.176;2023-03-11T05:26:43;3.78;;;2.90;;
27269;SDS011;14769;56.934;24.176;2023-03-11T05:27:48;3.22;;;2.50;;
27269;SDS011;14769;56.934;24.176;2023-03-11T05:28:50;3.30;;;2.90;;
27269;SDS011;14769;56.934;24.176;2023-03-11T05:29:52;3.08;;;2.70;;
27269;SDS011;14769;56.934;24.176;2023-03-11T05:30:54;3.58;;;2.60;;
27269;SDS011;14769;56.934;24.176;2023-03-11T05:31:56;3.97;;;2.63;;
27269;SDS011;14769;56.934;24.176;2023-03-11T05:32:58;4.10;;;2.83;;
27269;SDS011;14769;56.934;24.176;2023-03-11T05:34:00;2.72;;;2.38;;
27269;SDS011;14769;56.934;24.176;2023-03-11T05:35:02;6.75;;;3.03;;
27269;SDS011;14769;56.934;24.176;2023-03-11T05:36:05;3.10;;;2.47;;
27269;SDS011;14769;56.934;24.176;2023-03-11T05:37:09;3.58;;;2.53;;
27269;SDS011;14769;56.934;24.176;2023-03-11T05:38:11;4.00;;;2.80;;
27269;SDS011;14769;56.934;24.176;2023-03-11T05:39:13;4.38;;;3.03;;
27269;SDS011;14769;56.934;24.176;2023-03-11T05:40:15;4.03;;;2.72;;
27269;SDS011;14769;56.934;24.176;2023-03-11T05:41:18;4.10;;;2.60;;
27269;SDS011;14769;56.934;24.176;2023-03-11T05:42:20;4.20;;;2.95;;
27269;SDS011;14769;56.934;24.176;2023-03-11T05:43:22;5.90;;;3.33;;
27269;SDS011;14769;56.934;24.176;2023-03-11T05:44:24;5.25;;;3.22;;
27269;SDS011;14769;56.934;24.176;2023-03-11T05:45:26;4.78;;;3.22;;
27269;SDS011;14769;56.934;24.176;2023-03-11T05:46:28;4.13;;;2.75;;
27269;SDS011;14769;56.934;24.176;2023-03-11T05:47:30;21.83;;;9.27;;
27269;SDS011;14769;56.934;24.176;2023-03-11T05:48:32;12.45;;;5.75;;
27269;SDS011;14769;56.934;24.176;2023-03-11T05:49:34;10.25;;;4.75;;
27269;SDS011;14769;56.934;24.176;2023-03-11T05:50:36;6.65;;;3.95;;
27269;SDS011;14769;56.934;24.176;2023-03-11T05:51:38;5.63;;;3.10;;
27269;SDS011;14769;56.934;24.176;2023-03-11T05:52:40;7.70;;;4.75;;
27269;SDS011;14769;56.934;24.176;2023-03-11T05:53:43;12.43;;;6.97;;
27269;SDS011;14769;56.934;24.176;2023-03-11T05:54:49;15.90;;;7.85;;
27269;SDS011;14769;56.934;24.176;2023-03-11T05:55:58;15.38;;;7.25;;
27269;SDS011;14769;56.934;24.176;2023-03-11T05:57:02;9.77;;;5.72;;
27269;SDS011;14769;56.934;24.176;2023-03-11T05:58:04;12.23;;;5.68;;
27269;SDS011;14769;56.934;24.176;2023-03-11T05:59:06;9.40;;;5.70;;
27269;SDS011;14769;56.934;24.176;2023-03-11T06:00:09;10.68;;;5.72;;
27269;SDS011;14769;56.934;24.176;2023-03-11T06:01:13;9.77;;;5.53;;
27269;SDS011;14769;56.934;24.176;2023-03-11T06:02:17;7.00;;;4.53;;
27269;SDS011;14769;56.934;24.176;2023-03-11T06:03:21;12.13;;;6.30;;
27269;SDS011;14769;56.934;24.176;2023-03-11T06:04:23;10.23;;;6.15;;
27269;SDS011;14769;56.934;24.176;2023-03-11T06:05:25;11.43;;;5.75;;
27269;SDS011;14769;56.934;24.176;2023-03-11T06:06:27;9.73;;;5.72;;
27269;SDS011;14769;56.934;24.176;2023-03-11T06:07:30;5.63;;;4.30;;
27269;SDS011;14769;56.934;24.176;2023-03-11T06:08:32;6.38;;;3.90;;
27269;SDS011;14769;56.934;24.176;2023-03-11T06:09:35;4.60;;;3.50;;
27269;SDS011;14769;56.934;24.176;2023-03-11T06:10:37;6.68;;;3.83;;
27269;SDS011;14769;56.934;24.176;2023-03-11T06:11:39;4.28;;;3.40;;
27269;SDS011;14769;56.934;24.176;2023-03-11T06:12:41;6.75;;;4.28;;
27269;SDS011;14769;56.934;24.176;2023-03-11T06:13:43;6.40;;;3.53;;
27269;SDS011;14769;56.934;24.176;2023-03-11T06:14:45;5.30;;;2.88;;
27269;SDS011;14769;56.934;24.176;2023-03-11T06:15:47;4.13;;;2.92;;
27269;SDS011;14769;56.934;24.176;2023-03-11T06:16:49;4.40;;;2.97;;
27269;SDS011;14769;56.934;24.176;2023-03-11T06:17:51;6.85;;;3.60;;
27269;SDS011;14769;56.934;24.176;2023-03-11T06:18:53;7.18;;;3.47;;
27269;SDS011;14769;56.934;24.176;2023-03-11T06:19:55;5.88;;;3.80;;